createdAt,value
2019-02-20T00:00:49.790Z,0.20
2019-02-20T00:03:21.851Z,0.20
2019-02-20T00:05:54.015Z,0.20
2019-02-20T00:08:29.783Z,0.20
2019-02-20T00:11:02.921Z,0.20
2019-02-20T00:13:34.895Z,0.20
2019-02-20T00:16:07.010Z,0.30
2019-02-20T00:18:39.058Z,0.30
2019-02-20T00:21:12.057Z,0.30
2019-02-20T00:23:44.014Z,0.30
2019-02-20T00:26:16.259Z,0.20
2019-02-20T00:28:48.262Z,0.10
2019-02-20T00:31:21.699Z,0.10
2019-02-20T00:33:55.937Z,0.10
2019-02-20T00:36:27.948Z,0.00
2019-02-20T00:39:00.039Z,0.00
2019-02-20T00:41:32.280Z,-0.10
2019-02-20T00:44:24.598Z,-0.10
2019-02-20T00:47:14.143Z,0.00
2019-02-20T00:49:49.527Z,0.00
2019-02-20T00:52:34.190Z,0.00
2019-02-20T00:55:07.770Z,0.00
2019-02-20T00:57:39.942Z,0.00
2019-02-20T01:00:14.676Z,-0.10
2019-02-20T01:02:46.666Z,-0.10
2019-02-20T01:05:18.618Z,-0.10
2019-02-20T01:07:50.828Z,-0.20
2019-02-20T01:10:25.303Z,-0.10
2019-02-20T01:12:57.469Z,-0.20
2019-02-20T01:15:30.421Z,-0.10
2019-02-20T01:18:03.694Z,-0.10
2019-02-20T01:20:35.869Z,-0.10
2019-02-20T01:23:08.312Z,-0.10
2019-02-20T01:25:40.351Z,-0.10
2019-02-20T01:28:13.436Z,-0.10
2019-02-20T01:30:45.647Z,-0.20
2019-02-20T01:33:18.226Z,-0.20
2019-02-20T01:35:50.481Z,-0.20
2019-02-20T01:38:22.655Z,-0.20
2019-02-20T01:40:54.720Z,-0.30
2019-02-20T01:43:28.951Z,-0.30
2019-02-20T01:46:01.045Z,-0.30
2019-02-20T01:48:33.527Z,-0.20
2019-02-20T01:51:06.729Z,-0.20
2019-02-20T01:53:38.651Z,-0.20
2019-02-20T01:56:10.656Z,-0.30
2019-02-20T01:58:42.643Z,-0.30
2019-02-20T02:01:15.796Z,-0.30
2019-02-20T02:03:49.915Z,-0.30
2019-02-20T02:06:21.981Z,-0.40
2019-02-20T02:08:54.285Z,-0.40
2019-02-20T02:11:26.364Z,-0.50
2019-02-20T02:13:59.673Z,-0.50
2019-02-20T02:16:31.836Z,-0.50
2019-02-20T02:19:06.296Z,-0.50
2019-02-20T02:21:38.378Z,-0.50
2019-02-20T02:24:10.283Z,-0.50
2019-02-20T02:26:42.331Z,-0.50
2019-02-20T02:29:14.595Z,-0.50
2019-02-20T02:31:46.869Z,-0.50
2019-02-20T02:34:18.921Z,-0.60
2019-02-20T02:36:52.341Z,-0.50
2019-02-20T02:39:24.627Z,-0.50
2019-02-20T02:41:56.680Z,-0.50
2019-02-20T02:44:28.804Z,-0.50
2019-02-20T02:47:01.990Z,-0.40
2019-02-20T02:49:34.371Z,-0.50
2019-02-20T02:52:07.628Z,-0.60
2019-02-20T02:54:39.695Z,-0.50
2019-02-20T02:57:13.555Z,-0.60
2019-02-20T02:59:45.778Z,-0.60
2019-02-20T03:02:18.255Z,-0.60
2019-02-20T03:04:51.433Z,-0.60
2019-02-20T03:07:24.390Z,-0.60
2019-02-20T03:09:56.309Z,-0.60
2019-02-20T03:12:28.476Z,-0.60
2019-02-20T03:15:00.715Z,-0.60
2019-02-20T03:17:32.851Z,-0.60
2019-02-20T03:20:04.896Z,-0.50
2019-02-20T03:22:37.303Z,-0.50
2019-02-20T03:25:10.510Z,-0.60
2019-02-20T03:27:43.508Z,-0.60
2019-02-20T03:30:15.708Z,-0.60
2019-02-20T03:32:48.052Z,-0.60
2019-02-20T03:35:20.170Z,-0.60
2019-02-20T03:37:53.319Z,-0.60
2019-02-20T03:40:27.825Z,-0.60
2019-02-20T03:43:00.058Z,-0.60
2019-02-20T03:45:32.111Z,-0.60
2019-02-20T03:48:04.767Z,-0.60
2019-02-20T03:50:38.581Z,-0.50
2019-02-20T03:53:11.697Z,-0.50
2019-02-20T03:55:46.093Z,-0.50
2019-02-20T03:58:19.260Z,-0.50
2019-02-20T04:00:51.626Z,-0.40
2019-02-20T04:03:25.028Z,-0.30
2019-02-20T04:05:58.429Z,-0.30
2019-02-20T04:08:31.368Z,-0.30
2019-02-20T04:11:03.699Z,-0.30
2019-02-20T04:13:35.990Z,-0.30
2019-02-20T04:16:09.412Z,-0.30
2019-02-20T04:18:41.686Z,-0.20
2019-02-20T04:21:14.770Z,-0.20
2019-02-20T04:23:46.799Z,-0.10
2019-02-20T04:26:18.975Z,-0.10
2019-02-20T04:28:51.183Z,-0.10
2019-02-20T04:31:23.481Z,-0.10
2019-02-20T04:33:55.515Z,-0.10
2019-02-20T04:36:28.650Z,0.00
2019-02-20T04:39:01.875Z,0.00
2019-02-20T04:41:35.611Z,0.00
2019-02-20T04:44:08.525Z,0.00
2019-02-20T04:46:41.773Z,-0.10
2019-02-20T04:49:13.770Z,0.00
2019-02-20T04:51:46.889Z,0.00
2019-02-20T04:54:19.032Z,-0.10
2019-02-20T04:56:52.455Z,-0.10
2019-02-20T04:59:24.641Z,-0.10
2019-02-20T05:01:56.704Z,-0.10
2019-02-20T05:04:30.502Z,-0.20
2019-02-20T05:07:02.449Z,-0.20
2019-02-20T05:09:35.599Z,-0.30
2019-02-20T05:12:10.333Z,-0.30
2019-02-20T05:14:43.300Z,-0.20
2019-02-20T05:17:15.306Z,-0.30
2019-02-20T05:19:48.648Z,-0.30
2019-02-20T05:22:21.682Z,-0.30
2019-02-20T05:24:54.983Z,-0.30
2019-02-20T05:27:31.126Z,-0.20
2019-02-20T05:30:13.806Z,-0.20
2019-02-20T05:32:47.097Z,-0.10
2019-02-20T05:35:19.379Z,0.00
2019-02-20T05:37:51.647Z,0.00
2019-02-20T05:40:24.727Z,0.10
2019-02-20T05:42:56.874Z,0.00
2019-02-20T05:45:30.020Z,0.10
2019-02-20T05:48:03.379Z,0.10
2019-02-20T05:50:35.823Z,0.20
2019-02-20T05:53:09.958Z,0.20
2019-02-20T05:55:43.684Z,0.30
2019-02-20T05:58:18.877Z,0.40
2019-02-20T06:00:51.124Z,0.40
2019-02-20T06:03:23.658Z,0.40
2019-02-20T06:05:56.025Z,0.30
2019-02-20T06:08:30.294Z,0.20
2019-02-20T06:11:02.625Z,0.20
2019-02-20T06:13:34.761Z,0.10
2019-02-20T06:16:09.356Z,0.10
2019-02-20T06:18:45.632Z,0.10
2019-02-20T06:21:18.084Z,0.00
2019-02-20T06:23:51.097Z,0.00
2019-02-20T06:26:23.935Z,0.10
2019-02-20T06:28:56.569Z,0.20
2019-02-20T06:31:28.678Z,0.20
2019-02-20T06:34:00.614Z,0.30
2019-02-20T06:36:33.895Z,0.40
2019-02-20T06:39:07.367Z,0.50
2019-02-20T06:41:39.695Z,0.60
2019-02-20T06:44:14.132Z,0.70
2019-02-20T06:46:46.180Z,0.80
2019-02-20T06:49:33.778Z,1.00
2019-02-20T06:52:05.902Z,1.00
2019-02-20T06:54:37.998Z,1.20
2019-02-20T06:57:11.025Z,1.20
2019-02-20T06:59:43.234Z,1.30
2019-02-20T07:02:15.612Z,1.40
2019-02-20T07:05:23.657Z,1.40
2019-02-20T07:08:40.583Z,1.40
2019-02-20T07:12:00.192Z,1.50
2019-02-20T07:15:34.237Z,1.60
2019-02-20T07:18:42.799Z,1.70
2019-02-20T07:21:24.865Z,1.80
2019-02-20T07:24:22.206Z,1.90
2019-02-20T07:27:30.898Z,2.00
2019-02-20T07:30:05.108Z,2.20
2019-02-20T07:32:37.874Z,2.50
2019-02-20T07:35:13.244Z,2.70
2019-02-20T07:37:45.994Z,2.90
2019-02-20T07:40:19.642Z,3.00
2019-02-20T07:42:51.708Z,3.30
2019-02-20T07:45:25.835Z,3.40
2019-02-20T07:47:57.872Z,3.50
2019-02-20T07:50:30.017Z,3.70
2019-02-20T07:53:02.178Z,3.80
2019-02-20T07:55:34.354Z,3.90
2019-02-20T07:58:07.492Z,3.90
2019-02-20T08:00:39.747Z,4.00
2019-02-20T08:03:11.747Z,4.10
2019-02-20T08:05:43.826Z,4.20
2019-02-20T08:08:16.160Z,4.20
2019-02-20T08:10:48.184Z,4.30
2019-02-20T08:13:20.324Z,4.30
2019-02-20T08:15:52.924Z,4.40
2019-02-20T08:18:26.924Z,4.40
2019-02-20T08:20:59.217Z,4.50
2019-02-20T08:23:31.991Z,4.50
2019-02-20T08:26:05.327Z,4.70
2019-02-20T08:28:37.627Z,4.70
2019-02-20T08:31:11.409Z,4.70
2019-02-20T08:33:43.454Z,4.60
2019-02-20T08:36:16.439Z,4.60
2019-02-20T08:38:48.486Z,4.60
2019-02-20T08:41:22.501Z,4.50
2019-02-20T08:43:54.845Z,4.60
2019-02-20T08:46:26.985Z,4.60
2019-02-20T08:48:59.152Z,4.60
2019-02-20T08:51:31.331Z,4.80
2019-02-20T08:54:04.740Z,5.10
2019-02-20T08:56:37.104Z,5.30
2019-02-20T08:59:09.430Z,5.50
2019-02-20T09:01:42.677Z,5.80
2019-02-20T09:04:15.684Z,6.00
2019-02-20T09:06:49.691Z,6.20
2019-02-20T09:09:21.743Z,6.40
2019-02-20T09:11:53.811Z,6.60
2019-02-20T09:14:26.007Z,6.90
2019-02-20T09:16:59.387Z,7.10
2019-02-20T09:19:33.583Z,7.40
2019-02-20T09:22:07.115Z,7.80
2019-02-20T09:24:40.661Z,8.00
2019-02-20T09:27:12.733Z,8.30
2019-02-20T09:29:44.779Z,8.40
2019-02-20T09:32:16.971Z,8.60
2019-02-20T09:34:50.391Z,8.80
2019-02-20T09:37:22.623Z,8.90
2019-02-20T09:39:54.985Z,9.00
2019-02-20T09:42:27.759Z,9.20
2019-02-20T09:45:00.334Z,9.20
2019-02-20T09:47:32.458Z,9.20
2019-02-20T09:50:04.862Z,9.20
2019-02-20T09:52:37.281Z,9.10
2019-02-20T09:55:10.384Z,9.10
2019-02-20T09:57:43.576Z,9.10
2019-02-20T10:00:16.118Z,9.10
2019-02-20T10:02:48.709Z,9.10
2019-02-20T10:05:20.930Z,9.10
2019-02-20T10:07:53.133Z,9.20
2019-02-20T10:10:27.395Z,9.20
2019-02-20T10:13:00.480Z,9.40
2019-02-20T10:15:33.107Z,9.70
2019-02-20T10:18:07.662Z,10.20
2019-02-20T10:20:39.787Z,10.50
2019-02-20T10:23:13.293Z,10.90
2019-02-20T10:25:47.645Z,11.10
2019-02-20T10:28:19.758Z,11.30
2019-02-20T10:30:51.818Z,11.50
2019-02-20T10:33:25.507Z,11.70
2019-02-20T10:36:00.337Z,11.80
2019-02-20T10:38:32.543Z,11.70
2019-02-20T10:41:06.273Z,11.70
2019-02-20T10:43:38.743Z,11.60
2019-02-20T10:46:11.737Z,11.30
2019-02-20T10:48:43.712Z,11.10
2019-02-20T10:51:15.832Z,11.00
2019-02-20T10:53:50.508Z,10.90
2019-02-20T10:56:22.930Z,10.90
2019-02-20T10:58:55.289Z,11.00
2019-02-20T11:01:28.907Z,11.00
2019-02-20T11:04:00.888Z,11.20
2019-02-20T11:06:34.469Z,11.30
2019-02-20T11:09:07.740Z,11.40
2019-02-20T11:11:41.076Z,11.50
2019-02-20T11:14:14.519Z,11.70
2019-02-20T11:16:47.460Z,11.80
2019-02-20T11:19:19.562Z,12.10
2019-02-20T11:21:51.816Z,12.60
2019-02-20T11:24:23.857Z,13.00
2019-02-20T11:26:58.156Z,13.60
2019-02-20T11:29:31.224Z,14.00
2019-02-20T11:32:02.783Z,14.30
2019-02-20T11:34:35.844Z,14.50
2019-02-20T11:37:07.798Z,14.50
2019-02-20T11:39:39.592Z,14.50
2019-02-20T11:42:11.406Z,14.30
2019-02-20T11:44:43.381Z,14.20
2019-02-20T11:47:15.341Z,13.90
2019-02-20T11:49:47.242Z,13.70
2019-02-20T11:52:22.190Z,13.50
2019-02-20T11:54:54.079Z,13.60
2019-02-20T11:57:25.969Z,13.90
2019-02-20T11:59:57.869Z,14.10
2019-02-20T12:02:37.224Z,14.40
2019-02-20T12:05:03.299Z,14.50
2019-02-20T12:07:35.113Z,14.50
2019-02-20T12:10:09.009Z,14.60
2019-02-20T12:12:40.792Z,14.90
2019-02-20T12:15:12.959Z,15.10
2019-02-20T12:17:44.804Z,15.10
2019-02-20T12:20:16.700Z,15.20
2019-02-20T12:22:48.565Z,15.30
2019-02-20T12:25:20.786Z,15.30
2019-02-20T12:27:52.691Z,15.60
2019-02-20T12:30:24.587Z,15.80
2019-02-20T12:32:56.435Z,16.00
2019-02-20T12:35:28.319Z,16.10
2019-02-20T12:38:00.125Z,16.10
2019-02-20T12:40:33.146Z,16.10
2019-02-20T12:43:04.949Z,16.10
2019-02-20T12:45:36.839Z,16.00
2019-02-20T12:48:08.759Z,16.00
2019-02-20T12:50:40.546Z,16.00
2019-02-20T12:53:13.474Z,16.10
2019-02-20T12:55:45.231Z,16.10
2019-02-20T12:58:17.127Z,16.10
2019-02-20T13:00:48.943Z,16.10
2019-02-20T13:03:20.772Z,16.00
2019-02-20T13:05:52.681Z,15.90
2019-02-20T13:08:25.376Z,15.60
2019-02-20T13:10:57.330Z,15.40
2019-02-20T13:13:29.247Z,15.30
2019-02-20T13:16:09.347Z,15.30
2019-02-20T13:18:36.935Z,15.30
2019-02-20T13:21:11.125Z,15.20
2019-02-20T13:23:45.738Z,15.00
2019-02-20T13:26:17.558Z,14.80
2019-02-20T13:28:49.349Z,14.50
2019-02-20T13:31:22.272Z,14.40
2019-02-20T13:33:55.275Z,14.40
2019-02-20T13:36:28.355Z,14.30
2019-02-20T13:39:00.401Z,14.20
2019-02-20T13:41:33.803Z,13.90
2019-02-20T13:44:05.709Z,13.70
2019-02-20T13:46:40.723Z,13.40
2019-02-20T13:49:13.709Z,13.40
2019-02-20T13:51:45.685Z,13.40
2019-02-20T13:54:17.577Z,13.40
2019-02-20T13:56:50.526Z,13.20
2019-02-20T13:59:24.834Z,13.20
2019-02-20T14:01:57.166Z,13.20
2019-02-20T14:04:30.047Z,13.10
2019-02-20T14:07:01.892Z,13.20
2019-02-20T14:09:36.058Z,13.20
2019-02-20T14:12:07.948Z,13.20
2019-02-20T14:14:40.117Z,13.10
2019-02-20T14:17:12.006Z,13.10
2019-02-20T14:19:43.873Z,13.10
2019-02-20T14:22:15.726Z,13.00
2019-02-20T14:24:49.239Z,13.00
2019-02-20T14:27:21.334Z,13.00
2019-02-20T14:29:53.180Z,13.00
2019-02-20T14:32:26.212Z,13.00
2019-02-20T14:34:58.170Z,13.10
2019-02-20T14:37:31.061Z,13.10
2019-02-20T14:40:03.192Z,13.10
2019-02-20T14:42:36.359Z,13.10
2019-02-20T14:45:09.511Z,13.00
2019-02-20T14:47:41.407Z,12.90
2019-02-20T14:50:13.540Z,12.90
2019-02-20T14:52:45.435Z,12.80
2019-02-20T14:55:17.331Z,12.90
2019-02-20T14:57:51.019Z,12.90
2019-02-20T15:00:23.227Z,12.80
2019-02-20T15:02:55.127Z,12.80
2019-02-20T15:05:27.112Z,12.90
2019-02-20T15:07:58.993Z,12.90
2019-02-20T15:10:30.890Z,13.00
2019-02-20T15:13:02.770Z,13.00
2019-02-20T15:15:34.815Z,13.00
2019-02-20T15:18:06.825Z,13.00
2019-02-20T15:20:38.731Z,13.00
2019-02-20T15:23:10.817Z,12.80
2019-02-20T15:25:42.683Z,12.70
2019-02-20T15:28:14.574Z,12.60
2019-02-20T15:30:46.467Z,12.60
2019-02-20T15:33:18.358Z,12.50
2019-02-20T15:35:50.303Z,12.40
2019-02-20T15:38:22.140Z,12.30
2019-02-20T15:40:54.092Z,12.20
2019-02-20T15:43:26.136Z,12.10
2019-02-20T15:45:57.914Z,12.00
2019-02-20T15:48:29.863Z,11.90
2019-02-20T15:51:05.453Z,11.80
2019-02-20T15:53:37.359Z,11.70
2019-02-20T15:56:11.521Z,11.60
2019-02-20T15:58:44.127Z,11.50
2019-02-20T16:01:20.035Z,11.50
2019-02-20T16:03:51.908Z,11.30
2019-02-20T16:06:24.112Z,11.30
2019-02-20T16:08:56.195Z,11.10
2019-02-20T16:11:32.947Z,11.10
2019-02-20T16:14:05.088Z,11.00
2019-02-20T16:16:37.228Z,10.90
2019-02-20T16:19:09.442Z,10.80
2019-02-20T16:21:42.273Z,10.70
2019-02-20T16:24:14.135Z,10.60
2019-02-20T16:26:46.080Z,10.50
2019-02-20T16:29:18.046Z,10.40
2019-02-20T16:31:51.449Z,10.30
2019-02-20T16:34:23.380Z,10.30
2019-02-20T16:36:57.597Z,10.20
2019-02-20T16:39:31.006Z,10.10
2019-02-20T16:42:04.059Z,10.00
2019-02-20T16:44:36.054Z,9.90
2019-02-20T16:50:33.408Z,9.70
2019-02-20T16:53:08.330Z,9.60
2019-02-20T16:55:41.443Z,9.50
2019-02-20T16:58:14.680Z,9.50
2019-02-20T17:01:01.911Z,9.40
2019-02-20T17:06:32.165Z,9.20
2019-02-20T17:09:06.568Z,9.10
2019-02-20T17:11:42.261Z,9.00
2019-02-20T17:14:17.863Z,8.90
2019-02-20T17:19:49.521Z,8.80
2019-02-20T17:22:23.079Z,8.70
2019-02-20T17:24:57.526Z,8.70
2019-02-20T17:27:29.342Z,8.70
2019-02-20T17:30:02.475Z,8.80
2019-02-20T17:36:09.077Z,8.80
2019-02-20T17:38:51.493Z,8.80
2019-02-20T17:41:27.664Z,8.70
2019-02-20T17:44:01.651Z,8.50
2019-02-20T17:46:33.339Z,8.40
2019-02-20T17:49:05.267Z,8.40
2019-02-20T17:51:37.566Z,8.30
2019-02-20T17:54:09.346Z,8.30
2019-02-20T17:56:41.281Z,8.30
2019-02-20T17:59:18.935Z,8.30
2019-02-20T18:01:50.849Z,8.20
2019-02-20T18:04:22.719Z,8.20
2019-02-20T18:06:54.595Z,8.10
2019-02-20T18:09:26.460Z,8.10
2019-02-20T18:12:02.645Z,8.10
2019-02-20T18:14:34.482Z,8.10
2019-02-20T18:17:06.316Z,8.10
2019-02-20T18:19:38.177Z,8.00
2019-02-20T18:22:15.502Z,8.00
2019-02-20T18:24:47.406Z,8.00
2019-02-20T18:27:19.257Z,7.90
2019-02-20T18:29:51.207Z,7.90
2019-02-20T18:32:26.331Z,7.80
2019-02-20T18:34:58.454Z,7.80
2019-02-20T18:37:30.284Z,7.80
2019-02-20T18:40:03.111Z,7.80
2019-02-20T18:42:36.308Z,7.70
2019-02-20T18:45:10.823Z,7.70
2019-02-20T18:47:42.718Z,7.70
2019-02-20T18:50:20.040Z,7.70
2019-02-20T18:52:52.224Z,7.60
2019-02-20T18:55:24.004Z,7.60
2019-02-20T18:57:55.890Z,7.50
2019-02-20T19:00:27.686Z,7.50
2019-02-20T19:03:00.929Z,7.40
2019-02-20T19:05:38.038Z,7.40
2019-02-20T19:08:58.894Z,7.50
2019-02-20T19:12:20.494Z,7.50
2019-02-20T19:15:33.557Z,7.40
2019-02-20T19:19:02.754Z,7.20
2019-02-20T19:21:59.735Z,7.10
2019-02-20T19:25:06.609Z,7.00
2019-02-20T19:28:20.574Z,6.90
2019-02-20T19:31:43.459Z,6.90
2019-02-20T19:34:56.917Z,6.80
2019-02-20T19:38:19.020Z,6.80
2019-02-20T19:41:40.467Z,6.70
2019-02-20T19:44:19.424Z,6.60
2019-02-20T19:47:08.667Z,6.60
2019-02-20T19:50:17.836Z,6.60
2019-02-20T19:53:07.644Z,6.50
2019-02-20T19:56:11.652Z,6.40
2019-02-20T19:59:32.587Z,6.30
2019-02-20T20:02:53.266Z,6.20
2019-02-20T20:06:09.316Z,6.00
2019-02-20T20:09:07.532Z,5.90
2019-02-20T20:12:27.049Z,5.70
2019-02-20T20:15:36.487Z,5.60
2019-02-20T20:18:49.654Z,5.40
2019-02-20T20:21:37.761Z,5.30
2019-02-20T20:24:36.610Z,5.20
2019-02-20T20:27:56.187Z,5.20
2019-02-20T20:31:14.783Z,5.10
2019-02-20T20:34:09.394Z,5.00
2019-02-20T20:37:30.046Z,4.90
2019-02-20T20:40:09.123Z,4.80
2019-02-20T20:43:20.586Z,4.70
2019-02-20T20:46:40.715Z,4.60
2019-02-20T20:49:37.246Z,4.50
2019-02-20T20:52:36.424Z,4.50
2019-02-20T20:55:43.227Z,4.40
2019-02-20T20:58:32.731Z,4.30
2019-02-20T21:01:28.676Z,4.30
2019-02-20T21:04:17.599Z,4.20
2019-02-20T21:07:16.695Z,4.20
2019-02-20T21:10:35.481Z,4.20
2019-02-20T21:13:42.747Z,4.10
2019-02-20T21:16:36.073Z,4.00
2019-02-20T21:19:37.591Z,3.90
2019-02-20T21:22:42.838Z,3.80
2019-02-20T21:26:03.443Z,3.80
2019-02-20T21:29:28.395Z,3.70
2019-02-20T21:32:42.679Z,3.60
2019-02-20T21:35:39.223Z,3.50
2019-02-20T21:38:59.868Z,3.50
2019-02-20T21:42:03.052Z,3.40
2019-02-20T21:45:16.473Z,3.40
2019-02-20T21:48:12.990Z,3.30
2019-02-20T21:51:09.904Z,3.30
2019-02-20T21:54:27.107Z,3.20
2019-02-20T21:57:16.768Z,3.20
2019-02-20T22:00:23.644Z,3.10
2019-02-20T22:03:54.761Z,3.10
2019-02-20T22:07:05.707Z,3.10
2019-02-20T22:10:14.260Z,3.20
2019-02-20T22:13:51.064Z,3.10
2019-02-20T22:16:58.473Z,3.00
2019-02-20T22:20:16.986Z,3.00
2019-02-20T22:23:16.324Z,3.00
2019-02-20T22:26:31.796Z,2.90
2019-02-20T22:30:02.383Z,2.80
2019-02-20T22:33:08.875Z,2.70
2019-02-20T22:36:13.505Z,2.60
2019-02-20T22:39:23.411Z,2.50
2019-02-20T22:42:42.481Z,2.50
2019-02-20T22:45:33.548Z,2.40
2019-02-20T22:48:47.679Z,2.30
2019-02-20T22:51:48.444Z,2.30
2019-02-20T22:55:07.474Z,2.30
2019-02-20T22:58:11.063Z,2.30
2019-02-20T23:01:41.999Z,2.30
2019-02-20T23:04:54.226Z,2.20
2019-02-20T23:08:02.441Z,2.20
2019-02-20T23:11:16.262Z,2.20
2019-02-20T23:14:02.565Z,2.10
2019-02-20T23:16:35.352Z,2.10
2019-02-20T23:19:07.223Z,2.10
2019-02-20T23:21:39.123Z,2.10
2019-02-20T23:24:11.003Z,2.10
2019-02-20T23:26:43.875Z,2.00
2019-02-20T23:29:16.783Z,2.00
2019-02-20T23:31:48.665Z,2.00
2019-02-20T23:34:20.545Z,2.00
2019-02-20T23:36:54.608Z,2.00
2019-02-20T23:39:26.537Z,2.00
2019-02-20T23:41:58.457Z,2.00
2019-02-20T23:44:30.338Z,1.90
2019-02-20T23:47:02.248Z,1.90
2019-02-20T23:49:35.157Z,1.90
2019-02-20T23:52:07.007Z,1.80
2019-02-20T23:54:38.883Z,1.80
2019-02-20T23:57:10.746Z,1.80
2019-02-20T23:59:42.681Z,1.80
